Time;durP1;ratioP1;P1;durP2;ratioP2;P2;SDS_P1;SDS_P2;PMS_P1;PMS_P2;Temp;Humidity;BMP_temperature;BMP_pressure;BME280_temperature;BME280_humidity;BME280_pressure;Samples;Min_cycle;Max_cycle;Signal;HPM_P1;HPM_P2
2022/12/24 00:00:58;0.00;0.00;0.62;0.00;0.00;0.62;1.57;1.27;;;23.80;29.30;;;;;;2267888;61;20387;-68
2022/12/24 00:03:42;0.00;0.00;0.62;0.00;0.00;0.62;2.70;1.33;;;23.80;29.30;;;;;;2268716;61;20367;-66
2022/12/24 00:06:27;0.00;0.00;0.62;0.00;0.00;0.62;2.30;1.70;;;23.80;29.30;;;;;;2268743;61;20450;-66
2022/12/24 00:09:12;0.00;0.00;0.62;0.00;0.00;0.62;2.77;1.43;;;23.80;29.30;;;;;;2267799;61;20360;-65
2022/12/24 00:11:57;0.00;0.00;0.62;0.00;0.00;0.62;1.80;1.27;;;23.80;29.30;;;;;;2268743;61;20355;-65
2022/12/24 00:14:41;0.00;0.00;0.62;0.00;0.00;0.62;2.53;1.37;;;23.80;29.30;;;;;;2268885;61;20403;-67
2022/12/24 00:17:27;0.00;0.00;0.62;0.00;0.00;0.62;2.00;1.27;;;23.80;29.30;;;;;;2267735;61;20448;-67
2022/12/24 00:20:12;0.00;0.00;0.62;0.00;0.00;0.62;1.60;1.07;;;23.80;29.30;;;;;;2268599;61;20403;-66
2022/12/24 00:22:57;0.00;0.00;0.62;0.00;0.00;0.62;2.20;1.60;;;23.70;29.20;;;;;;2268244;61;20945;-65
2022/12/24 00:25:42;0.00;0.00;0.62;0.00;0.00;0.62;2.60;1.90;;;23.70;29.20;;;;;;2268456;61;20363;-66
2022/12/24 00:28:27;0.00;0.00;0.62;0.00;0.00;0.62;1.93;1.53;;;23.80;29.30;;;;;;2268535;61;20799;-67
2022/12/24 00:31:14;0.00;0.00;0.62;0.00;0.00;0.62;2.83;1.30;;;23.70;29.20;;;;;;2267757;61;20906;-65
2022/12/24 00:34:01;0.00;0.00;0.62;0.00;0.00;0.62;2.07;1.50;;;23.70;29.20;;;;;;2268579;61;20399;-63
2022/12/24 00:36:45;0.00;0.00;0.62;0.00;0.00;0.62;1.83;1.30;;;23.70;29.20;;;;;;2268804;61;20797;-67
2022/12/24 00:39:30;0.00;0.00;0.62;0.00;0.00;0.62;2.10;1.57;;;23.70;29.20;;;;;;2267510;61;20403;-67
2022/12/24 00:42:15;0.00;0.00;0.62;0.00;0.00;0.62;2.00;1.20;;;23.70;29.20;;;;;;2268363;61;20374;-64
2022/12/24 00:45:00;0.00;0.00;0.62;0.00;0.00;0.62;1.53;1.10;;;23.70;29.20;;;;;;2268282;61;20405;-66
2022/12/24 00:47:44;0.00;0.00;0.62;0.00;0.00;0.62;2.03;1.20;;;23.70;29.20;;;;;;2268464;61;20376;-66
2022/12/24 00:50:30;0.00;0.00;0.62;0.00;0.00;0.62;1.50;1.13;;;23.60;29.70;;;;;;2268236;61;20933;-65
2022/12/24 00:53:17;0.00;0.00;0.62;0.00;0.00;0.62;1.90;1.47;;;23.70;29.20;;;;;;2264465;61;20510;-66
2022/12/24 00:56:02;0.00;0.00;0.62;0.00;0.00;0.62;1.73;1.13;;;23.60;29.10;;;;;;2268641;61;20405;-67
2022/12/24 00:58:46;0.00;0.00;0.62;0.00;0.00;0.62;1.93;1.30;;;23.60;29.10;;;;;;2268637;61;20803;-66
2022/12/24 01:01:31;0.00;0.00;0.62;0.00;0.00;0.62;1.93;1.33;;;23.60;29.00;;;;;;2505859;53;20429;-69
2022/12/24 01:07:21;0.00;0.00;0.62;0.00;0.00;0.62;2.30;1.50;;;23.60;29.00;;;;;;2268006;61;20382;-66
2022/12/24 01:10:07;0.00;0.00;0.62;0.00;0.00;0.62;2.73;1.50;;;23.60;28.90;;;;;;2268310;61;20452;-67
2022/12/24 01:12:52;0.00;0.00;0.62;0.00;0.00;0.62;2.10;1.43;;;23.60;28.90;;;;;;2268421;61;20398;-66
2022/12/24 01:15:37;0.00;0.00;0.62;0.00;0.00;0.62;1.90;1.23;;;23.60;28.90;;;;;;2267686;61;20910;-67
2022/12/24 01:18:22;0.00;0.00;0.62;0.00;0.00;0.62;2.37;1.20;;;23.50;28.80;;;;;;2268461;61;20398;-67
2022/12/24 01:21:06;0.00;0.00;0.62;0.00;0.00;0.62;1.67;1.33;;;23.50;28.80;;;;;;2263863;61;20829;-65
2022/12/24 01:23:53;0.00;0.00;0.62;0.00;0.00;0.62;1.73;1.33;;;23.50;28.80;;;;;;2263606;61;20359;-65
2022/12/24 01:26:37;0.00;0.00;0.62;0.00;0.00;0.62;2.00;1.40;;;23.50;28.90;;;;;;2264484;61;20526;-68
2022/12/24 01:29:22;0.00;0.00;0.62;0.00;0.00;0.62;2.23;1.53;;;23.50;28.90;;;;;;2264527;61;20365;-66
2022/12/24 01:32:07;0.00;0.00;0.62;0.00;0.00;0.62;2.00;1.67;;;23.50;28.80;;;;;;2272508;61;20885;-68
2022/12/24 01:34:51;0.00;0.00;0.62;0.00;0.00;0.62;1.80;1.13;;;23.50;28.90;;;;;;2272492;61;20396;-69
2022/12/24 01:37:36;0.00;0.00;0.62;0.00;0.00;0.62;1.67;1.10;;;23.40;28.80;;;;;;2271776;61;20346;-68
2022/12/24 01:43:31;0.00;0.00;0.62;0.00;0.00;0.62;1.87;1.23;;;23.40;28.80;;;;;;2265387;61;20374;-66
2022/12/24 01:46:21;0.00;0.00;0.62;0.00;0.00;0.62;1.57;1.07;;;23.40;28.80;;;;;;2267707;61;20359;-67
2022/12/24 01:49:12;0.00;0.00;0.62;0.00;0.00;0.62;1.67;1.17;;;23.40;28.80;;;;;;2268513;61;20382;-66
2022/12/24 01:52:01;0.00;0.00;0.62;0.00;0.00;0.62;1.50;1.20;;;23.40;28.90;;;;;;2267853;61;20359;-68
2022/12/24 01:54:51;0.00;0.00;0.62;0.00;0.00;0.62;2.10;1.40;;;23.30;28.80;;;;;;2268372;61;20363;-68
2022/12/24 01:57:41;0.00;0.00;0.62;0.00;0.00;0.62;2.20;1.40;;;23.30;28.90;;;;;;2268447;61;20356;-68
2022/12/24 02:00:26;0.00;0.00;0.62;0.00;0.00;0.62;1.60;1.10;;;23.30;28.90;;;;;;2267414;61;20938;-65
2022/12/24 02:03:11;0.00;0.00;0.62;0.00;0.00;0.62;1.80;1.10;;;23.30;28.90;;;;;;2267501;61;20878;-66
2022/12/24 02:05:58;0.00;0.00;0.62;0.00;0.00;0.62;2.20;1.10;;;23.30;28.90;;;;;;2269201;61;20896;-66
2022/12/24 02:08:42;0.00;0.00;0.62;0.00;0.00;0.62;1.60;1.10;;;23.30;28.90;;;;;;2268404;61;20433;-65
2022/12/24 02:11:28;0.00;0.00;0.62;0.00;0.00;0.62;1.60;1.00;;;23.20;28.90;;;;;;2507430;53;20370;-65
2022/12/24 02:14:15;0.00;0.00;0.62;0.00;0.00;0.62;2.10;1.33;;;23.20;28.80;;;;;;2268396;61;20359;-66
2022/12/24 02:17:09;0.00;0.00;0.62;0.00;0.00;0.62;1.80;1.33;;;23.20;28.80;;;;;;2269075;61;20363;-67
2022/12/24 02:21:14;0.00;0.00;0.62;0.00;0.00;0.62;2.00;1.40;;;23.20;28.90;;;;;;2270747;60;20954;-66
2022/12/24 02:24:51;0.00;0.00;0.62;0.00;0.00;0.62;1.87;1.40;;;23.10;28.80;;;;;;2273001;61;20378;-66
2022/12/24 02:27:52;0.00;0.00;0.62;0.00;0.00;0.62;2.73;1.20;;;23.00;28.70;;;;;;2269790;61;20381;-66
2022/12/24 02:30:44;0.00;0.00;0.62;0.00;0.00;0.62;2.13;1.20;;;23.00;28.70;;;;;;2265754;61;20968;-67
2022/12/24 02:33:37;0.00;0.00;0.62;0.00;0.00;0.62;3.10;1.37;;;22.90;28.60;;;;;;2264923;61;20775;-68
2022/12/24 02:36:28;0.00;0.00;0.62;0.00;0.00;0.62;3.27;1.47;;;22.90;28.60;;;;;;2264290;61;20404;-66
2022/12/24 02:39:21;0.00;0.00;0.62;0.00;0.00;0.62;2.07;1.27;;;22.90;28.60;;;;;;2265356;61;20505;-68
2022/12/24 02:42:07;0.00;0.00;0.62;0.00;0.00;0.62;1.63;1.27;;;22.90;28.60;;;;;;2269021;61;20402;-65
2022/12/24 02:44:56;0.00;0.00;0.62;0.00;0.00;0.62;2.37;1.63;;;22.80;28.50;;;;;;2268379;61;20355;-65
2022/12/24 02:47:45;0.00;0.00;0.62;0.00;0.00;0.62;3.17;1.50;;;22.70;28.60;;;;;;2269051;61;20429;-65
2022/12/24 02:50:30;0.00;0.00;0.62;0.00;0.00;0.62;4.60;1.60;;;22.70;28.80;;;;;;2268626;61;20437;-65
2022/12/24 02:53:15;0.00;0.00;0.62;0.00;0.00;0.62;3.30;1.27;;;22.70;28.90;;;;;;2268664;61;20807;-67
2022/12/24 02:56:39;0.00;0.00;0.62;0.00;0.00;0.62;4.13;2.03;;;22.60;28.90;;;;;;2265734;61;20859;-66
2022/12/24 02:59:50;0.00;0.00;0.62;0.00;0.00;0.62;4.30;1.60;;;22.50;28.90;;;;;;2268749;61;20413;-66
2022/12/24 03:03:00;0.00;0.00;0.62;0.00;0.00;0.62;2.87;1.50;;;22.50;29.00;;;;;;2272864;61;20404;-65
2022/12/24 03:05:50;0.00;0.00;0.62;0.00;0.00;0.62;4.40;1.57;;;22.40;29.00;;;;;;2272465;61;20404;-68
2022/12/24 03:08:47;0.00;0.00;0.62;0.00;0.00;0.62;4.17;1.87;;;22.30;29.00;;;;;;2272794;61;20863;-66
2022/12/24 03:11:34;0.00;0.00;0.62;0.00;0.00;0.62;7.50;1.80;;;22.30;29.10;;;;;;2512183;53;20410;-65
2022/12/24 03:14:21;0.00;0.00;0.62;0.00;0.00;0.62;5.17;2.20;;;22.20;29.10;;;;;;2271575;60;20361;-66
2022/12/24 03:17:07;0.00;0.00;0.62;0.00;0.00;0.62;8.07;2.63;;;22.20;29.20;;;;;;2273014;61;20955;-65
2022/12/24 03:19:55;0.00;0.00;0.62;0.00;0.00;0.62;4.63;2.20;;;22.10;29.20;;;;;;2270850;61;20479;-67
2022/12/24 03:22:40;0.00;0.00;0.62;0.00;0.00;0.62;5.83;1.97;;;22.00;29.20;;;;;;2268052;61;20375;-68
2022/12/24 03:25:26;0.00;0.00;0.62;0.00;0.00;0.62;5.13;1.60;;;22.00;29.30;;;;;;2269070;61;20394;-67
2022/12/24 03:28:15;0.00;0.00;0.62;0.00;0.00;0.62;3.60;1.80;;;21.90;29.40;;;;;;2267981;61;20387;-67
2022/12/24 03:31:01;0.00;0.00;0.62;0.00;0.00;0.62;5.57;1.77;;;21.90;29.50;;;;;;2268486;61;20444;-67
2022/12/24 03:33:47;0.00;0.00;0.62;0.00;0.00;0.62;5.20;1.53;;;21.80;29.50;;;;;;2268899;61;20498;-64
2022/12/24 03:36:33;0.00;0.00;0.62;0.00;0.00;0.62;5.43;2.43;;;21.80;29.60;;;;;;2267878;61;20359;-68
2022/12/24 03:39:18;0.00;0.00;0.62;0.00;0.00;0.62;4.73;2.30;;;21.70;29.50;;;;;;2268654;61;20421;-65
2022/12/24 03:42:03;0.00;0.00;0.62;0.00;0.00;0.62;5.23;1.83;;;21.70;29.70;;;;;;2268564;61;20763;-68
2022/12/24 03:44:47;0.00;0.00;0.62;0.00;0.00;0.62;7.30;2.23;;;21.70;29.70;;;;;;2267978;61;20371;-65
2022/12/24 03:47:32;0.00;0.00;0.62;0.00;0.00;0.62;3.47;1.80;;;21.60;29.70;;;;;;2268691;61;20866;-67
2022/12/24 03:50:16;0.00;0.00;0.62;0.00;0.00;0.62;5.47;2.33;;;21.50;29.70;;;;;;2267949;61;20968;-67
2022/12/24 03:53:02;0.00;0.00;0.62;0.00;0.00;0.62;5.50;2.80;;;21.50;29.70;;;;;;2268519;61;20921;-68
2022/12/24 03:55:47;0.00;0.00;0.62;0.00;0.00;0.62;7.37;2.30;;;21.50;29.80;;;;;;2268865;61;20367;-65
2022/12/24 03:58:31;0.00;0.00;0.62;0.00;0.00;0.62;6.27;2.83;;;21.50;29.80;;;;;;2267779;61;20794;-68
2022/12/24 04:01:17;0.00;0.00;0.62;0.00;0.00;0.62;7.23;2.67;;;21.40;29.90;;;;;;2268702;61;20378;-68
2022/12/24 04:04:02;0.00;0.00;0.62;0.00;0.00;0.62;5.93;1.97;;;21.40;29.90;;;;;;2268737;61;20394;-67
2022/12/24 04:06:46;0.00;0.00;0.62;0.00;0.00;0.62;5.60;1.97;;;21.30;29.90;;;;;;2267965;61;20359;-67
2022/12/24 04:09:32;0.00;0.00;0.62;0.00;0.00;0.62;4.70;2.23;;;21.30;29.90;;;;;;2268571;61;20371;-68
2022/12/24 04:12:17;0.00;0.00;0.62;0.00;0.00;0.62;4.10;2.30;;;21.30;30.00;;;;;;2268644;61;20398;-67
2022/12/24 04:15:01;0.00;0.00;0.62;0.00;0.00;0.62;3.40;1.83;;;21.30;29.90;;;;;;2268558;61;20744;-67
2022/12/24 04:17:46;0.00;0.00;0.62;0.00;0.00;0.62;9.20;2.90;;;21.20;29.90;;;;;;2268783;61;20348;-67
2022/12/24 04:20:30;0.00;0.00;0.62;0.00;0.00;0.62;4.47;2.33;;;21.20;30.00;;;;;;2264800;61;20391;-67
2022/12/24 04:23:15;0.00;0.00;0.62;0.00;0.00;0.62;6.50;3.07;;;21.10;30.00;;;;;;2264738;61;20375;-67
2022/12/24 04:26:02;0.00;0.00;0.62;0.00;0.00;0.62;8.60;2.73;;;21.10;30.00;;;;;;2264639;61;20883;-67
2022/12/24 04:28:46;0.00;0.00;0.62;0.00;0.00;0.62;10.07;2.53;;;21.00;30.00;;;;;;2263881;61;20439;-68
2022/12/24 04:31:31;0.00;0.00;0.62;0.00;0.00;0.62;10.70;2.53;;;21.00;30.00;;;;;;2501815;53;20375;-67
2022/12/24 04:34:16;0.00;0.00;0.62;0.00;0.00;0.62;7.50;2.33;;;21.00;30.10;;;;;;2260006;61;20779;-68
2022/12/24 04:37:00;0.00;0.00;0.62;0.00;0.00;0.62;4.83;2.03;;;20.90;30.10;;;;;;2261166;61;20887;-68
2022/12/24 04:39:45;0.00;0.00;0.62;0.00;0.00;0.62;10.93;2.90;;;20.90;30.20;;;;;;2265918;61;20421;-66
2022/12/24 04:42:31;0.00;0.00;0.62;0.00;0.00;0.62;9.80;3.10;;;20.80;30.20;;;;;;2267813;61;20875;-66
2022/12/24 04:45:15;0.00;0.00;0.62;0.00;0.00;0.62;6.17;2.67;;;20.80;30.20;;;;;;2265477;61;20414;-68
2022/12/24 04:48:00;0.00;0.00;0.62;0.00;0.00;0.62;7.13;1.93;;;20.80;30.20;;;;;;2265386;61;20421;-68
2022/12/24 04:50:45;0.00;0.00;0.62;0.00;0.00;0.62;5.60;2.10;;;20.80;30.20;;;;;;2271020;60;20390;-68
2022/12/24 04:53:30;0.00;0.00;0.62;0.00;0.00;0.62;6.17;2.13;;;20.80;30.30;;;;;;2272435;61;20377;-66
2022/12/24 04:56:18;0.00;0.00;0.62;0.00;0.00;0.62;10.27;3.53;;;20.80;30.20;;;;;;2272689;61;20932;-67
2022/12/24 04:59:05;0.00;0.00;0.62;0.00;0.00;0.62;7.87;2.60;;;20.80;30.20;;;;;;2272155;61;20859;-65
2022/12/24 05:01:49;0.00;0.00;0.62;0.00;0.00;0.62;5.43;2.23;;;20.70;30.20;;;;;;2272619;61;20431;-66
2022/12/24 05:04:34;0.00;0.00;0.62;0.00;0.00;0.62;5.77;2.33;;;20.70;30.10;;;;;;2268655;61;20374;-68
2022/12/24 05:07:18;0.00;0.00;0.62;0.00;0.00;0.62;6.40;2.30;;;20.70;30.10;;;;;;2272693;61;20798;-65
2022/12/24 05:10:05;0.00;0.00;0.62;0.00;0.00;0.62;6.67;2.10;;;20.70;30.10;;;;;;2270339;61;20838;-68
2022/12/24 05:12:49;0.00;0.00;0.62;0.00;0.00;0.62;6.97;2.57;;;20.70;30.20;;;;;;2267825;61;20409;-67
2022/12/24 05:15:35;0.00;0.00;0.62;0.00;0.00;0.62;4.93;1.90;;;20.70;30.20;;;;;;2268483;61;20831;-68
2022/12/24 05:18:20;0.00;0.00;0.62;0.00;0.00;0.62;8.57;2.80;;;20.60;30.00;;;;;;2268493;61;20359;-67
2022/12/24 05:21:08;0.00;0.00;0.62;0.00;0.00;0.62;5.90;1.80;;;20.60;30.10;;;;;;2260453;61;20419;-66
2022/12/24 05:26:58;0.00;0.00;0.62;0.00;0.00;0.62;10.33;2.30;;;20.60;30.10;;;;;;2263353;61;20371;-66
2022/12/24 05:29:42;0.00;0.00;0.62;0.00;0.00;0.62;6.23;2.13;;;20.60;30.10;;;;;;2265653;61;20494;-65
2022/12/24 05:32:29;0.00;0.00;0.62;0.00;0.00;0.62;8.93;2.60;;;20.50;30.10;;;;;;2268483;61;20405;-65
2022/12/24 05:35:14;0.00;0.00;0.62;0.00;0.00;0.62;7.27;2.57;;;20.50;30.20;;;;;;2266023;61;20470;-65
2022/12/24 05:37:58;0.00;0.00;0.62;0.00;0.00;0.62;5.00;2.63;;;20.50;30.30;;;;;;2268171;61;20355;-65
2022/12/24 05:40:43;0.00;0.00;0.62;0.00;0.00;0.62;4.73;2.00;;;20.40;30.30;;;;;;2268459;61;20947;-65
2022/12/24 05:43:28;0.00;0.00;0.62;0.00;0.00;0.62;6.10;2.53;;;20.40;30.40;;;;;;2267342;61;20374;-64
2022/12/24 05:46:17;0.00;0.00;0.62;0.00;0.00;0.62;8.27;2.83;;;20.40;30.50;;;;;;2268458;61;20358;-67
2022/12/24 05:49:03;0.00;0.00;0.62;0.00;0.00;0.62;7.77;2.57;;;20.40;30.70;;;;;;2484742;53;20364;-64
2022/12/24 05:51:48;0.00;0.00;0.62;0.00;0.00;0.62;4.90;2.30;;;20.40;30.80;;;;;;2299048;57;20429;-62
2022/12/24 05:54:32;0.00;0.00;0.62;0.00;0.00;0.62;7.50;2.33;;;20.40;30.90;;;;;;2268122;61;20370;-65
2022/12/24 05:57:17;0.00;0.00;0.62;0.00;0.00;0.62;6.00;2.10;;;20.40;31.00;;;;;;2263958;61;20439;-64
2022/12/24 06:00:02;0.00;0.00;0.62;0.00;0.00;0.62;6.13;2.20;;;20.40;31.00;;;;;;2267748;61;20950;-67
2022/12/24 06:02:57;0.00;0.00;0.62;0.00;0.00;0.62;5.63;2.40;;;20.40;31.00;;;;;;2267914;61;20401;-70
2022/12/24 06:05:43;0.00;0.00;0.62;0.00;0.00;0.62;4.73;2.50;;;20.40;31.10;;;;;;2264531;61;20898;-69
2022/12/24 06:08:29;0.00;0.00;0.62;0.00;0.00;0.62;8.90;3.30;;;20.40;31.10;;;;;;2267915;61;20390;-63
2022/12/24 06:11:19;0.00;0.00;0.62;0.00;0.00;0.62;4.63;2.67;;;20.40;31.00;;;;;;2267104;61;20386;-63
2022/12/24 06:14:04;0.00;0.00;0.62;0.00;0.00;0.62;7.93;3.00;;;20.40;31.10;;;;;;2268240;61;20359;-68
2022/12/24 06:16:48;0.00;0.00;0.62;0.00;0.00;0.62;8.10;2.60;;;20.40;31.00;;;;;;2268073;61;20918;-66
2022/12/24 06:19:33;0.00;0.00;0.62;0.00;0.00;0.62;5.13;2.77;;;20.40;31.00;;;;;;2263758;61;20370;-67
2022/12/24 06:22:18;0.00;0.00;0.62;0.00;0.00;0.62;8.37;3.37;;;20.40;31.10;;;;;;2272531;61;20385;-67
2022/12/24 06:25:04;0.00;0.00;0.62;0.00;0.00;0.62;7.30;3.47;;;20.40;31.00;;;;;;2268182;61;20364;-66
2022/12/24 06:27:49;0.00;0.00;0.62;0.00;0.00;0.62;5.17;1.97;;;20.40;31.00;;;;;;2267619;61;20406;-62
2022/12/24 06:30:34;0.00;0.00;0.62;0.00;0.00;0.62;8.93;2.40;;;20.30;31.00;;;;;;2267973;61;20922;-64
2022/12/24 06:33:18;0.00;0.00;0.62;0.00;0.00;0.62;10.17;3.00;;;20.30;31.00;;;;;;2267277;61;20409;-63
2022/12/24 06:36:06;0.00;0.00;0.62;0.00;0.00;0.62;7.13;3.30;;;20.40;31.20;;;;;;2268308;61;20812;-66
2022/12/24 06:38:53;0.00;0.00;0.62;0.00;0.00;0.62;5.47;2.20;;;20.30;31.10;;;;;;2268183;61;20453;-64
2022/12/24 06:41:38;0.00;0.00;0.62;0.00;0.00;0.62;8.10;3.00;;;20.30;31.10;;;;;;2267452;61;20406;-63
2022/12/24 06:44:23;0.00;0.00;0.62;0.00;0.00;0.62;10.30;2.93;;;20.30;31.00;;;;;;2268360;61;20382;-64
2022/12/24 06:47:07;0.00;0.00;0.62;0.00;0.00;0.62;8.13;3.23;;;20.30;30.80;;;;;;2268176;61;20387;-62
2022/12/24 06:49:52;0.00;0.00;0.62;0.00;0.00;0.62;7.53;3.00;;;20.30;30.90;;;;;;2266921;61;20391;-65
2022/12/24 06:52:37;0.00;0.00;0.62;0.00;0.00;0.62;9.00;2.90;;;20.30;30.70;;;;;;2261657;61;20375;-65
2022/12/24 06:55:23;0.00;0.00;0.62;0.00;0.00;0.62;8.97;2.80;;;20.30;30.70;;;;;;2263908;61;20574;-64
2022/12/24 06:58:08;0.00;0.00;0.62;0.00;0.00;0.62;10.70;3.10;;;20.30;30.70;;;;;;2264985;61;20414;-66
2022/12/24 07:00:52;0.00;0.00;0.62;0.00;0.00;0.62;6.27;2.53;;;20.30;30.70;;;;;;2265097;61;20419;-64
2022/12/24 07:03:37;0.00;0.00;0.62;0.00;0.00;0.62;6.80;2.70;;;20.30;30.80;;;;;;2264079;61;20363;-62
2022/12/24 07:06:25;0.00;0.00;0.62;0.00;0.00;0.62;6.17;2.50;;;20.30;30.70;;;;;;2264626;61;20767;-65
2022/12/24 07:09:12;0.00;0.00;0.62;0.00;0.00;0.62;11.83;4.13;;;20.30;30.70;;;;;;2262959;61;20399;-64
2022/12/24 07:11:58;0.00;0.00;0.62;0.00;0.00;0.62;5.30;2.33;;;20.30;30.70;;;;;;2501107;53;20356;-67
2022/12/24 07:14:43;0.00;0.00;0.62;0.00;0.00;0.62;5.50;2.50;;;20.30;30.70;;;;;;2264601;61;20395;-68
2022/12/24 07:17:27;0.00;0.00;0.62;0.00;0.00;0.62;4.33;2.40;;;20.30;30.70;;;;;;2263693;61;20414;-64
2022/12/24 07:20:13;0.00;0.00;0.62;0.00;0.00;0.62;5.10;2.23;;;20.30;30.70;;;;;;2268364;60;20393;-66
2022/12/24 07:22:58;0.00;0.00;0.62;0.00;0.00;0.62;2.93;1.50;;;20.40;30.80;;;;;;2272521;61;20455;-64
2022/12/24 07:25:43;0.00;0.00;0.62;0.00;0.00;0.62;3.67;1.70;;;20.40;30.80;;;;;;2271992;61;20358;-65
2022/12/24 07:28:30;0.00;0.00;0.62;0.00;0.00;0.62;3.40;1.83;;;20.40;30.70;;;;;;2272430;61;20432;-66
2022/12/24 07:31:14;0.00;0.00;0.62;0.00;0.00;0.62;6.03;2.27;;;20.50;30.70;;;;;;2268531;61;20390;-66
2022/12/24 07:33:59;0.00;0.00;0.62;0.00;0.00;0.62;3.90;1.50;;;20.50;30.60;;;;;;2267813;61;20381;-65
2022/12/24 07:36:44;0.00;0.00;0.62;0.00;0.00;0.62;4.40;1.53;;;20.60;30.60;;;;;;2268551;61;20765;-69
2022/12/24 07:39:28;0.00;0.00;0.62;0.00;0.00;0.62;2.87;1.50;;;20.60;30.50;;;;;;2268011;61;20803;-64
2022/12/24 07:42:13;0.00;0.00;0.62;0.00;0.00;0.62;2.67;1.30;;;20.60;30.40;;;;;;2268402;61;20425;-66
2022/12/24 07:44:59;0.00;0.00;0.62;0.00;0.00;0.62;2.77;1.20;;;20.70;30.50;;;;;;2268623;61;20895;-64
2022/12/24 07:47:44;0.00;0.00;0.62;0.00;0.00;0.62;7.67;2.43;;;20.80;30.50;;;;;;2264504;61;20398;-65
2022/12/24 07:50:28;0.00;0.00;0.62;0.00;0.00;0.62;2.97;1.63;;;20.80;30.40;;;;;;2268085;61;20398;-67
2022/12/24 07:53:13;0.00;0.00;0.62;0.00;0.00;0.62;3.90;1.70;;;20.80;30.30;;;;;;2268612;61;20362;-66
2022/12/24 07:55:58;0.00;0.00;0.62;0.00;0.00;0.62;2.63;1.43;;;20.80;30.20;;;;;;2267697;61;20418;-64
2022/12/24 07:58:43;0.00;0.00;0.62;0.00;0.00;0.62;6.43;1.70;;;20.90;30.20;;;;;;2268631;61;20395;-66
2022/12/24 08:01:29;0.00;0.00;0.62;0.00;0.00;0.62;2.40;1.20;;;20.90;30.10;;;;;;2284512;61;20422;-66
2022/12/24 08:04:14;0.00;0.00;0.62;0.00;0.00;0.62;3.10;1.57;;;21.00;30.20;;;;;;2268428;61;20363;-69
2022/12/24 08:06:59;0.00;0.00;0.62;0.00;0.00;0.62;3.70;1.57;;;21.00;30.10;;;;;;2268726;61;20409;-67
2022/12/24 08:09:45;0.00;0.00;0.62;0.00;0.00;0.62;3.20;1.50;;;21.00;30.00;;;;;;2267756;61;20375;-66
2022/12/24 08:12:32;0.00;0.00;0.62;0.00;0.00;0.62;4.43;1.47;;;21.10;30.30;;;;;;2268420;61;20454;-66
2022/12/24 08:15:17;0.00;0.00;0.62;0.00;0.00;0.62;3.33;1.83;;;21.10;30.00;;;;;;2268521;61;20760;-67
2022/12/24 08:18:04;0.00;0.00;0.62;0.00;0.00;0.62;3.50;1.30;;;21.10;30.00;;;;;;2267675;61;20879;-65
2022/12/24 08:20:48;0.00;0.00;0.62;0.00;0.00;0.62;2.90;1.30;;;21.20;30.00;;;;;;2268266;61;20394;-65
2022/12/24 08:23:33;0.00;0.00;0.62;0.00;0.00;0.62;3.00;1.40;;;21.20;30.00;;;;;;2268447;61;20884;-62
2022/12/24 08:26:18;0.00;0.00;0.62;0.00;0.00;0.62;2.93;1.10;;;21.20;29.90;;;;;;2268182;61;20363;-66
2022/12/24 08:29:04;0.00;0.00;0.62;0.00;0.00;0.62;3.03;1.90;;;21.20;29.90;;;;;;2268133;61;20893;-63
2022/12/24 08:31:49;0.00;0.00;0.62;0.00;0.00;0.62;2.23;1.20;;;21.30;29.90;;;;;;2500765;53;20410;-67
2022/12/24 08:34:35;0.00;0.00;0.62;0.00;0.00;0.62;3.40;1.90;;;21.30;29.90;;;;;;2264266;61;20941;-69
2022/12/24 08:37:20;0.00;0.00;0.62;0.00;0.00;0.62;3.60;1.80;;;21.30;29.80;;;;;;2264359;61;20417;-62
2022/12/24 08:40:07;0.00;0.00;0.62;0.00;0.00;0.62;2.80;1.23;;;21.30;29.80;;;;;;2262188;61;20950;-65
2022/12/24 08:42:51;0.00;0.00;0.62;0.00;0.00;0.62;3.27;1.60;;;21.40;29.80;;;;;;2268556;61;20359;-65
2022/12/24 08:45:38;0.00;0.00;0.62;0.00;0.00;0.62;2.60;1.53;;;21.40;29.80;;;;;;2268378;61;20887;-64
2022/12/24 08:48:22;0.00;0.00;0.62;0.00;0.00;0.62;3.40;1.70;;;21.40;29.80;;;;;;2267996;61;20480;-65
2022/12/24 08:51:10;0.00;0.00;0.62;0.00;0.00;0.62;3.17;1.47;;;21.40;29.70;;;;;;2268018;61;20441;-64
2022/12/24 08:53:55;0.00;0.00;0.62;0.00;0.00;0.62;2.37;1.30;;;21.50;29.70;;;;;;2267423;61;20360;-67
2022/12/24 08:56:40;0.00;0.00;0.62;0.00;0.00;0.62;3.17;1.30;;;21.50;29.70;;;;;;2268414;61;20359;-62
2022/12/24 08:59:24;0.00;0.00;0.62;0.00;0.00;0.62;3.17;1.30;;;21.50;29.70;;;;;;2268186;61;20936;-68
2022/12/24 09:02:09;0.00;0.00;0.62;0.00;0.00;0.62;2.70;1.10;;;21.50;29.60;;;;;;2267380;61;20421;-64
2022/12/24 09:04:54;0.00;0.00;0.62;0.00;0.00;0.62;2.23;1.20;;;21.50;29.60;;;;;;2268390;61;20394;-65
2022/12/24 09:07:40;0.00;0.00;0.62;0.00;0.00;0.62;4.27;1.97;;;21.60;29.70;;;;;;2265093;61;20898;-65
2022/12/24 09:10:25;0.00;0.00;0.62;0.00;0.00;0.62;2.40;1.20;;;21.60;30.10;;;;;;2267487;61;20395;-67
2022/12/24 09:13:09;0.00;0.00;0.62;0.00;0.00;0.62;1.97;1.23;;;21.60;29.70;;;;;;2267987;61;20821;-68
2022/12/24 09:15:54;0.00;0.00;0.62;0.00;0.00;0.62;2.33;1.10;;;21.70;29.70;;;;;;2267521;61;20894;-68
2022/12/24 09:18:39;0.00;0.00;0.62;0.00;0.00;0.62;3.07;1.53;;;21.60;29.60;;;;;;2268491;61;20386;-69
2022/12/24 09:21:24;0.00;0.00;0.62;0.00;0.00;0.62;3.07;1.77;;;21.70;29.70;;;;;;2285711;61;20391;-67
2022/12/24 09:24:10;0.00;0.00;0.62;0.00;0.00;0.62;2.30;1.30;;;21.70;29.60;;;;;;2267510;61;20363;-67
2022/12/24 09:26:55;0.00;0.00;0.62;0.00;0.00;0.62;2.37;1.20;;;21.70;29.60;;;;;;2268354;61;20429;-68
2022/12/24 09:29:40;0.00;0.00;0.62;0.00;0.00;0.62;1.83;1.13;;;21.80;29.70;;;;;;2267993;61;20399;-64
2022/12/24 09:32:24;0.00;0.00;0.62;0.00;0.00;0.62;4.73;1.00;;;21.80;30.10;;;;;;2267690;61;20359;-65
2022/12/24 09:35:09;0.00;0.00;0.62;0.00;0.00;0.62;2.80;1.13;;;21.80;29.60;;;;;;2268174;61;20358;-66
2022/12/24 09:38:03;0.00;0.00;0.62;0.00;0.00;0.62;2.20;1.17;;;21.80;30.00;;;;;;2267981;61;20390;-68
2022/12/24 09:40:50;0.00;0.00;0.62;0.00;0.00;0.62;2.13;1.07;;;21.80;29.60;;;;;;2267958;61;20391;-67
2022/12/24 09:43:36;0.00;0.00;0.62;0.00;0.00;0.62;2.23;1.10;;;21.90;29.60;;;;;;2268197;61;20407;-67
2022/12/24 09:46:25;0.00;0.00;0.62;0.00;0.00;0.62;2.73;1.10;;;21.90;29.60;;;;;;2267602;61;20405;-67
2022/12/24 09:49:19;0.00;0.00;0.62;0.00;0.00;0.62;2.87;1.27;;;21.90;29.60;;;;;;2267462;61;20884;-66
2022/12/24 09:52:09;0.00;0.00;0.62;0.00;0.00;0.62;2.67;1.30;;;21.90;29.50;;;;;;2263945;61;20832;-66
2022/12/24 09:55:03;0.00;0.00;0.62;0.00;0.00;0.62;2.17;1.20;;;21.90;29.50;;;;;;2263732;61;21000;-68
2022/12/24 09:57:52;0.00;0.00;0.62;0.00;0.00;0.62;3.00;1.33;;;22.00;29.50;;;;;;2264194;61;20888;-64
2022/12/24 10:00:37;0.00;0.00;0.62;0.00;0.00;0.62;2.20;1.20;;;22.00;29.50;;;;;;2266452;61;20391;-68
2022/12/24 10:03:22;0.00;0.00;0.62;0.00;0.00;0.62;2.10;0.93;;;22.00;29.50;;;;;;2268213;61;20339;-68
2022/12/24 10:06:13;0.00;0.00;0.62;0.00;0.00;0.62;2.37;1.40;;;22.10;29.50;;;;;;2268181;61;20363;-68
2022/12/24 10:09:10;0.00;0.00;0.62;0.00;0.00;0.62;1.83;1.00;;;22.10;29.50;;;;;;2267045;61;20826;-63
2022/12/24 10:12:04;0.00;0.00;0.62;0.00;0.00;0.62;1.73;1.10;;;22.10;29.50;;;;;;2501292;53;20468;-68
2022/12/24 10:15:01;0.00;0.00;0.62;0.00;0.00;0.62;3.10;1.30;;;22.10;29.40;;;;;;2263969;61;20399;-67
2022/12/24 10:18:04;0.00;0.00;0.62;0.00;0.00;0.62;2.40;1.27;;;22.10;29.40;;;;;;2264221;61;20926;-63
2022/12/24 10:20:55;0.00;0.00;0.62;0.00;0.00;0.62;2.87;1.53;;;22.20;29.40;;;;;;2267360;61;20386;-67
2022/12/24 10:23:47;0.00;0.00;0.62;0.00;0.00;0.62;2.03;1.17;;;22.20;29.40;;;;;;2267731;61;20385;-66
2022/12/24 10:26:39;0.00;0.00;0.62;0.00;0.00;0.62;3.30;1.27;;;22.20;29.40;;;;;;2268752;61;20363;-66
2022/12/24 10:29:28;0.00;0.00;0.62;0.00;0.00;0.62;2.40;1.00;;;22.20;29.30;;;;;;2268487;61;20387;-65
2022/12/24 10:32:28;0.00;0.00;0.62;0.00;0.00;0.62;2.47;1.07;;;22.20;29.30;;;;;;2268584;61;20382;-65
2022/12/24 10:35:22;0.00;0.00;0.62;0.00;0.00;0.62;2.40;1.20;;;22.20;29.30;;;;;;2268960;61;20363;-69
2022/12/24 10:38:07;0.00;0.00;0.62;0.00;0.00;0.62;2.00;1.13;;;22.20;29.30;;;;;;2267869;61;20350;-67
2022/12/24 10:40:55;0.00;0.00;0.62;0.00;0.00;0.62;2.00;1.10;;;22.20;29.20;;;;;;2268524;61;20813;-67
2022/12/24 10:43:42;0.00;0.00;0.62;0.00;0.00;0.62;1.90;1.00;;;22.30;29.30;;;;;;2268758;61;20410;-66
2022/12/24 10:46:35;0.00;0.00;0.62;0.00;0.00;0.62;2.13;1.17;;;22.30;29.30;;;;;;2268010;61;20351;-67
2022/12/24 10:49:32;0.00;0.00;0.62;0.00;0.00;0.62;3.47;1.30;;;22.30;29.30;;;;;;2268612;61;21020;-68
2022/12/24 10:52:23;0.00;0.00;0.62;0.00;0.00;0.62;1.87;1.00;;;22.30;29.30;;;;;;2268111;61;20367;-65
2022/12/24 10:55:19;0.00;0.00;0.62;0.00;0.00;0.62;2.30;1.30;;;22.30;29.20;;;;;;2268615;61;20409;-63
2022/12/24 10:58:12;0.00;0.00;0.62;0.00;0.00;0.62;2.17;1.00;;;22.40;29.30;;;;;;2268861;61;20367;-63
2022/12/24 11:00:57;0.00;0.00;0.62;0.00;0.00;0.62;2.10;1.30;;;22.40;29.20;;;;;;2270871;60;20386;-64
2022/12/24 11:03:42;0.00;0.00;0.62;0.00;0.00;0.62;2.13;1.07;;;22.40;29.20;;;;;;2273010;61;20362;-66
2022/12/24 11:06:30;0.00;0.00;0.62;0.00;0.00;0.62;2.20;1.20;;;22.40;29.20;;;;;;2272530;61;20442;-67
2022/12/24 11:09:21;0.00;0.00;0.62;0.00;0.00;0.62;2.13;1.10;;;22.40;29.20;;;;;;2271689;61;20941;-67